createdAt,value
2024-02-12T00:01:01.850Z,108.43
2024-02-12T00:01:59.358Z,188.50
2024-02-12T00:02:43.622Z,292.75
2024-02-12T00:03:48.186Z,254.60
2024-02-12T00:04:22.110Z,333.42
2024-02-12T00:05:03.524Z,491.05
2024-02-12T00:05:50.686Z,223.50
2024-02-12T00:06:23.377Z,144.25
2024-02-12T00:07:14.821Z,144.90
2024-02-12T00:08:25.807Z,165.95
2024-02-12T00:09:12.801Z,106.35
2024-02-12T00:10:07.064Z,126.65
2024-02-12T00:10:44.468Z,218.88
2024-02-12T00:12:22.804Z,114.05
2024-02-12T00:12:58.517Z,145.98
2024-02-12T00:14:06.208Z,119.20
2024-02-12T00:14:50.257Z,112.72
2024-02-12T00:15:25.104Z,192.55
2024-02-12T00:16:09.740Z,151.00
2024-02-12T00:16:48.552Z,87.20
2024-02-12T00:17:41.653Z,113.65
2024-02-12T00:19:06.737Z,113.75
2024-02-12T00:19:43.220Z,135.55
2024-02-12T00:20:19.112Z,156.50
2024-02-12T00:20:58.237Z,222.30
2024-02-12T00:21:39.584Z,121.13
2024-02-12T00:22:16.531Z,149.38
2024-02-12T00:23:03.596Z,123.35
2024-02-12T00:23:45.498Z,203.88
2024-02-12T00:24:33.820Z,149.02
2024-02-12T00:25:27.357Z,92.65
2024-02-12T00:27:11.244Z,55.72
2024-02-12T00:27:51.552Z,123.30
2024-02-12T00:28:56.032Z,111.22
2024-02-12T00:30:45.010Z,119.90
2024-02-12T00:31:22.937Z,110.13
2024-02-12T00:32:31.418Z,120.50
2024-02-12T00:33:08.563Z,125.13
2024-02-12T00:34:14.235Z,100.20
2024-02-12T00:35:02.282Z,105.72
2024-02-12T00:35:49.598Z,165.68
2024-02-12T00:36:34.291Z,87.55
2024-02-12T00:37:11.777Z,134.85
2024-02-12T00:38:20.735Z,164.13
2024-02-12T00:38:55.967Z,92.13
2024-02-12T00:39:40.656Z,82.20
2024-02-12T00:40:15.455Z,98.88
2024-02-12T00:40:48.001Z,70.57
2024-02-12T00:41:35.115Z,69.07
2024-02-12T00:42:13.901Z,180.73
2024-02-12T00:43:02.802Z,72.45
2024-02-12T00:43:49.624Z,80.05
2024-02-12T00:44:43.013Z,95.55
2024-02-12T00:45:29.098Z,131.27
2024-02-12T00:46:22.348Z,171.00
2024-02-12T00:48:22.821Z,141.43
2024-02-12T00:49:19.267Z,97.53
2024-02-12T00:49:57.514Z,87.80
2024-02-12T00:50:53.534Z,122.22
2024-02-12T00:51:53.554Z,111.25
2024-02-12T00:52:56.988Z,129.20
2024-02-12T00:53:51.403Z,92.93
2024-02-12T00:54:42.721Z,99.55
2024-02-12T00:55:32.422Z,100.80
2024-02-12T00:56:14.170Z,68.35
2024-02-12T00:57:01.908Z,86.45
2024-02-12T00:57:48.560Z,78.25
2024-02-12T00:58:27.525Z,59.70
2024-02-12T00:59:12.197Z,198.77
2024-02-12T00:59:51.521Z,107.25
2024-02-12T01:00:35.803Z,93.93
2024-02-12T01:01:17.632Z,64.85
2024-02-12T01:02:05.709Z,126.68
2024-02-12T01:03:19.749Z,113.82
2024-02-12T01:04:16.503Z,102.15
2024-02-12T01:04:57.894Z,73.15
2024-02-12T01:05:57.929Z,73.20
2024-02-12T01:06:50.113Z,167.02
2024-02-12T01:07:40.141Z,116.78
2024-02-12T01:08:30.843Z,46.45
2024-02-12T01:09:39.222Z,90.72
2024-02-12T01:10:32.233Z,71.78
2024-02-12T01:11:22.480Z,70.90
2024-02-12T01:12:19.450Z,157.80
2024-02-12T01:12:59.314Z,69.95
2024-02-12T01:13:34.895Z,83.95
2024-02-12T01:14:10.641Z,78.07
2024-02-12T01:15:19.933Z,47.10
2024-02-12T01:16:14.352Z,88.30
2024-02-12T01:16:59.349Z,61.08
2024-02-12T01:17:53.628Z,100.72
2024-02-12T01:18:47.048Z,69.00
2024-02-12T01:19:27.562Z,70.57
2024-02-12T01:20:13.354Z,112.55
2024-02-12T01:22:16.329Z,93.38
2024-02-12T01:22:55.469Z,90.15
2024-02-12T01:23:36.367Z,69.50
2024-02-12T01:24:29.538Z,69.30
2024-02-12T01:25:12.203Z,64.53
2024-02-12T01:25:54.067Z,55.90
2024-02-12T01:26:44.106Z,100.28
2024-02-12T01:27:37.597Z,114.40
2024-02-12T01:28:13.194Z,57.65
2024-02-12T01:29:06.806Z,75.50
2024-02-12T01:29:54.376Z,60.33
2024-02-12T01:30:43.871Z,79.15
2024-02-12T01:31:46.156Z,96.95
2024-02-12T01:32:21.193Z,67.43
2024-02-12T01:33:17.470Z,50.70
2024-02-12T01:34:23.390Z,44.22
2024-02-12T01:35:07.580Z,169.55
2024-02-12T01:35:58.826Z,88.35
2024-02-12T01:36:54.238Z,57.53
2024-02-12T01:37:56.175Z,114.93
2024-02-12T01:38:35.168Z,58.92
2024-02-12T01:39:31.568Z,80.35
2024-02-12T01:40:21.134Z,74.30
2024-02-12T01:41:04.999Z,131.20
2024-02-12T01:41:43.219Z,79.35
2024-02-12T01:42:22.191Z,93.80
2024-02-12T01:43:23.521Z,82.97
2024-02-12T01:44:19.168Z,93.05
2024-02-12T01:45:19.046Z,67.93
2024-02-12T01:46:21.461Z,131.13
2024-02-12T01:47:21.337Z,131.35
2024-02-12T01:48:00.056Z,138.02
2024-02-12T01:48:53.063Z,93.43
2024-02-12T01:49:52.557Z,93.38
2024-02-12T01:50:39.753Z,127.78
2024-02-12T01:51:27.077Z,85.63
2024-02-12T01:52:11.604Z,118.70
2024-02-12T01:53:05.827Z,110.07
2024-02-12T01:53:55.859Z,101.68
2024-02-12T01:54:52.746Z,146.98
2024-02-12T01:56:37.222Z,135.95
2024-02-12T01:57:24.864Z,157.68
2024-02-12T01:58:09.434Z,123.05
2024-02-12T01:59:11.501Z,151.60
2024-02-12T01:59:56.210Z,239.52
2024-02-12T02:00:37.407Z,146.50
2024-02-12T02:01:20.088Z,88.95
2024-02-12T02:01:55.563Z,165.45
2024-02-12T02:02:46.913Z,198.25
2024-02-12T02:03:25.756Z,159.15
2024-02-12T02:04:16.520Z,121.03
2024-02-12T02:05:05.953Z,139.20
2024-02-12T02:05:57.487Z,91.70
2024-02-12T02:07:00.501Z,113.53
2024-02-12T02:07:54.657Z,182.90
2024-02-12T02:08:38.633Z,118.28
2024-02-12T02:09:13.625Z,105.80
2024-02-12T02:09:46.073Z,110.90
2024-02-12T02:10:30.475Z,113.22
2024-02-12T02:11:19.143Z,79.72
2024-02-12T02:12:09.549Z,152.48
2024-02-12T02:12:58.356Z,202.30
2024-02-12T02:13:58.018Z,235.32
2024-02-12T02:14:50.392Z,196.98
2024-02-12T02:15:46.517Z,200.88
2024-02-12T02:16:36.947Z,103.32
2024-02-12T02:17:15.232Z,123.32
2024-02-12T02:17:56.533Z,139.02
2024-02-12T02:18:47.076Z,166.18
2024-02-12T02:19:37.477Z,255.65
2024-02-12T02:20:16.706Z,176.05
2024-02-12T02:20:52.165Z,163.02
2024-02-12T02:21:35.594Z,186.50
2024-02-12T02:22:21.495Z,86.53
2024-02-12T02:23:05.479Z,88.05
2024-02-12T02:24:08.803Z,97.65
2024-02-12T02:24:57.906Z,280.90
2024-02-12T02:25:45.413Z,218.77
2024-02-12T02:26:27.774Z,98.40
2024-02-12T02:27:03.119Z,113.88
2024-02-12T02:27:50.455Z,159.07
2024-02-12T02:28:41.884Z,402.92
2024-02-12T02:29:36.259Z,113.25
2024-02-12T02:30:13.279Z,163.18
2024-02-12T02:30:49.915Z,120.22
2024-02-12T02:31:35.195Z,82.55
2024-02-12T02:33:37.296Z,151.60
2024-02-12T02:35:24.716Z,99.30
2024-02-12T02:36:04.006Z,126.70
2024-02-12T02:36:50.053Z,458.48
2024-02-12T02:37:43.837Z,98.47
2024-02-12T02:38:35.686Z,183.30
2024-02-12T02:39:31.569Z,121.80
2024-02-12T02:40:19.439Z,88.60
2024-02-12T02:41:12.746Z,123.15
2024-02-12T02:42:01.415Z,93.20
2024-02-12T02:42:36.701Z,157.25
2024-02-12T02:43:20.259Z,83.07
2024-02-12T02:43:55.512Z,176.52
2024-02-12T02:44:34.048Z,155.77
2024-02-12T02:45:15.931Z,119.65
2024-02-12T02:46:12.264Z,98.25
2024-02-12T02:46:48.219Z,169.38
2024-02-12T02:47:30.160Z,187.32
2024-02-12T02:48:09.562Z,348.40
2024-02-12T02:48:56.210Z,131.07
2024-02-12T02:49:41.836Z,145.18
2024-02-12T02:50:31.131Z,220.82
2024-02-12T02:51:24.591Z,104.70
2024-02-12T02:52:01.512Z,133.75
2024-02-12T02:52:42.224Z,220.48
2024-02-12T02:53:26.932Z,151.02
2024-02-12T02:54:18.133Z,286.48
2024-02-12T02:55:04.858Z,196.65
2024-02-12T02:56:08.736Z,187.02
2024-02-12T02:56:55.606Z,169.68
2024-02-12T02:59:17.893Z,325.13
2024-02-12T03:01:06.973Z,81.53
2024-02-12T03:01:39.540Z,223.13
2024-02-12T03:02:30.945Z,156.00
2024-02-12T03:03:17.774Z,106.75
2024-02-12T03:04:08.077Z,197.10
2024-02-12T03:04:54.150Z,158.35
2024-02-12T03:05:32.676Z,184.48
2024-02-12T03:06:14.941Z,163.52
2024-02-12T03:06:51.511Z,229.52
2024-02-12T03:07:38.050Z,245.13
2024-02-12T03:08:19.669Z,264.13
2024-02-12T03:09:05.430Z,367.65
2024-02-12T03:09:46.959Z,209.32
2024-02-12T03:10:38.680Z,197.48
2024-02-12T03:11:16.162Z,334.75
2024-02-12T03:12:01.165Z,155.40
2024-02-12T03:12:44.989Z,471.38
2024-02-12T03:13:32.048Z,209.48
2024-02-12T03:14:22.554Z,221.57
2024-02-12T03:16:10.278Z,120.18
2024-02-12T03:17:02.209Z,197.60
2024-02-12T03:18:16.718Z,234.10
2024-02-12T03:19:13.209Z,328.30
2024-02-12T03:19:57.716Z,130.93
2024-02-12T03:20:44.922Z,148.68
2024-02-12T03:21:35.539Z,252.40
2024-02-12T03:22:15.490Z,317.00
2024-02-12T03:22:57.960Z,302.00
2024-02-12T03:23:33.904Z,269.80
2024-02-12T03:24:15.101Z,165.10
2024-02-12T03:25:19.814Z,284.15
2024-02-12T03:26:07.097Z,300.88
2024-02-12T03:26:58.010Z,258.13
2024-02-12T03:27:36.436Z,135.10
2024-02-12T03:28:29.629Z,172.90
2024-02-12T03:29:37.700Z,205.23
2024-02-12T03:30:28.694Z,199.02
2024-02-12T03:32:14.835Z,205.63
2024-02-12T03:33:04.440Z,219.70
2024-02-12T03:33:56.609Z,166.65
2024-02-12T03:34:31.091Z,338.30
2024-02-12T03:35:16.230Z,217.38
2024-02-12T03:36:01.099Z,142.27
2024-02-12T03:37:03.236Z,117.45
2024-02-12T03:37:51.422Z,119.40
2024-02-12T03:38:56.887Z,128.85
2024-02-12T03:39:38.149Z,195.77
2024-02-12T03:40:29.948Z,221.52
2024-02-12T03:41:08.824Z,213.07
2024-02-12T03:41:44.095Z,145.88
2024-02-12T03:42:31.067Z,189.77
2024-02-12T03:43:29.291Z,111.13
2024-02-12T03:44:11.314Z,209.63
2024-02-12T03:44:55.334Z,149.95
2024-02-12T03:45:57.547Z,134.43
2024-02-12T03:46:53.677Z,162.10
2024-02-12T03:47:47.970Z,155.27
2024-02-12T03:48:44.170Z,120.13
2024-02-12T03:49:33.761Z,212.43
2024-02-12T03:50:42.766Z,272.17
2024-02-12T03:51:44.201Z,163.25
2024-02-12T03:52:57.949Z,203.23
2024-02-12T03:53:48.872Z,206.18
2024-02-12T03:54:48.280Z,165.63
2024-02-12T03:56:01.441Z,175.27
2024-02-12T03:56:51.500Z,258.67
2024-02-12T03:58:03.070Z,204.45
2024-02-12T03:59:02.384Z,187.40
2024-02-12T04:00:01.381Z,166.75
2024-02-12T04:01:56.017Z,188.55
2024-02-12T04:02:51.713Z,228.98
2024-02-12T04:03:34.939Z,155.88
2024-02-12T04:04:28.294Z,263.05
2024-02-12T04:05:16.203Z,157.50
2024-02-12T04:06:17.004Z,466.15
2024-02-12T04:06:56.210Z,166.45
2024-02-12T04:07:39.647Z,243.43
2024-02-12T04:08:18.259Z,201.45
2024-02-12T04:08:58.516Z,202.68
2024-02-12T04:09:48.964Z,287.40
2024-02-12T04:10:36.231Z,269.73
2024-02-12T04:11:20.756Z,195.73
2024-02-12T04:12:28.088Z,184.27
2024-02-12T04:13:16.829Z,195.02
2024-02-12T04:14:30.934Z,142.50
2024-02-12T04:16:10.790Z,168.82
2024-02-12T04:18:05.214Z,300.95
2024-02-12T04:18:53.199Z,231.40
2024-02-12T04:19:29.056Z,220.07
2024-02-12T04:20:22.269Z,224.38
2024-02-12T04:20:55.903Z,134.63
2024-02-12T04:21:45.198Z,253.48
2024-02-12T04:22:31.055Z,240.63
2024-02-12T04:23:18.654Z,152.80
2024-02-12T04:23:56.790Z,135.65
2024-02-12T04:24:40.757Z,217.18
2024-02-12T04:25:27.782Z,248.60
2024-02-12T04:26:08.209Z,132.02
2024-02-12T04:27:45.675Z,278.48
2024-02-12T04:28:26.692Z,190.18
2024-02-12T04:29:15.151Z,167.88
2024-02-12T04:30:01.806Z,183.60
2024-02-12T04:30:46.326Z,255.65
2024-02-12T04:31:31.131Z,133.98
2024-02-12T04:32:23.976Z,170.45
2024-02-12T04:33:05.434Z,233.10
2024-02-12T04:33:49.776Z,174.32
2024-02-12T04:34:43.549Z,287.88
2024-02-12T04:35:24.459Z,175.60
2024-02-12T04:36:07.874Z,196.57
2024-02-12T04:36:59.364Z,192.13
2024-02-12T04:37:54.968Z,146.82
2024-02-12T04:38:56.618Z,213.48
2024-02-12T04:39:43.986Z,115.43
2024-02-12T04:40:22.320Z,158.60
2024-02-12T04:41:21.208Z,301.30
2024-02-12T04:42:01.062Z,233.27
2024-02-12T04:42:39.010Z,143.40
2024-02-12T04:43:26.817Z,135.80
2024-02-12T04:44:16.882Z,140.88
2024-02-12T04:45:06.718Z,266.55
2024-02-12T04:45:41.942Z,126.70
2024-02-12T04:46:17.515Z,246.80
2024-02-12T04:47:07.252Z,255.45
2024-02-12T04:49:02.412Z,169.93
2024-02-12T04:49:46.315Z,162.07
2024-02-12T04:50:34.184Z,106.63
2024-02-12T04:51:06.829Z,248.18
2024-02-12T04:51:57.428Z,187.45
2024-02-12T04:53:02.065Z,144.75
2024-02-12T04:54:24.993Z,376.98
2024-02-12T04:55:14.831Z,155.80
2024-02-12T04:55:55.960Z,134.43
2024-02-12T04:56:31.705Z,197.35
2024-02-12T04:57:22.030Z,112.15
2024-02-12T04:58:02.641Z,145.25
2024-02-12T04:58:37.360Z,410.60
2024-02-12T04:59:33.569Z,241.45
2024-02-12T05:00:25.332Z,118.38
2024-02-12T05:01:10.286Z,129.48
2024-02-12T05:02:02.029Z,154.27
2024-02-12T05:02:47.024Z,299.30
2024-02-12T05:03:38.007Z,107.85
2024-02-12T05:04:21.726Z,106.00
2024-02-12T05:05:06.831Z,144.02
2024-02-12T05:05:53.387Z,167.82
2024-02-12T05:06:40.037Z,155.82
2024-02-12T05:07:27.763Z,129.60
2024-02-12T05:08:10.168Z,131.48
2024-02-12T05:08:48.959Z,258.45
2024-02-12T05:09:42.238Z,161.77
2024-02-12T05:10:23.173Z,178.23
2024-02-12T05:11:07.054Z,121.65
2024-02-12T05:11:48.039Z,219.82
2024-02-12T05:12:35.609Z,432.92
2024-02-12T05:13:40.117Z,207.93
2024-02-12T05:14:33.207Z,178.77
2024-02-12T05:15:20.912Z,130.43
2024-02-12T05:16:17.906Z,379.58
2024-02-12T05:16:54.815Z,141.60
2024-02-12T05:17:46.288Z,168.15
2024-02-12T05:18:50.654Z,171.52
2024-02-12T05:20:51.645Z,217.20
2024-02-12T05:21:51.275Z,338.38
2024-02-12T05:24:43.506Z,344.70
2024-02-12T05:25:21.328Z,187.95
2024-02-12T05:26:06.225Z,265.38
2024-02-12T05:27:11.938Z,288.13
2024-02-12T05:27:58.572Z,237.68
2024-02-12T05:29:01.249Z,239.60
2024-02-12T05:29:57.766Z,228.77
2024-02-12T05:30:50.560Z,297.92
2024-02-12T05:31:44.274Z,206.68
2024-02-12T05:32:40.917Z,266.73
2024-02-12T05:33:19.139Z,352.73
2024-02-12T05:34:08.487Z,130.40
2024-02-12T05:34:57.016Z,256.48
2024-02-12T05:35:44.888Z,199.48
2024-02-12T05:36:41.090Z,142.13
2024-02-12T05:37:33.887Z,136.65
2024-02-12T05:38:18.224Z,149.13
2024-02-12T05:38:51.836Z,112.90
2024-02-12T05:39:29.637Z,203.40
2024-02-12T05:40:11.011Z,236.95
2024-02-12T05:41:01.099Z,226.07
2024-02-12T05:41:42.006Z,154.77
2024-02-12T05:42:34.724Z,339.67
2024-02-12T05:43:10.164Z,196.68
2024-02-12T05:44:15.062Z,204.18
2024-02-12T05:45:08.277Z,209.48
2024-02-12T05:46:07.746Z,217.50
2024-02-12T05:46:55.107Z,144.38
2024-02-12T05:47:57.256Z,185.82
2024-02-12T05:48:40.766Z,275.70
2024-02-12T05:49:36.009Z,156.40
2024-02-12T05:50:23.631Z,151.07
2024-02-12T05:51:24.656Z,161.48
2024-02-12T05:52:22.847Z,234.57
2024-02-12T05:53:24.801Z,167.98
2024-02-12T05:54:05.904Z,296.15
2024-02-12T05:54:46.574Z,174.73
2024-02-12T05:55:28.058Z,330.67
2024-02-12T05:56:21.563Z,214.05
2024-02-12T05:57:31.927Z,317.52
2024-02-12T05:58:48.932Z,289.45
2024-02-12T05:59:41.754Z,235.63
2024-02-12T06:00:28.079Z,254.43
2024-02-12T06:01:03.178Z,361.98
2024-02-12T06:01:53.940Z,251.35
2024-02-12T06:02:40.648Z,297.75
2024-02-12T06:03:31.008Z,235.20
2024-02-12T06:04:30.375Z,256.67
2024-02-12T06:05:23.135Z,183.13
2024-02-12T06:06:16.989Z,265.08
2024-02-12T06:07:19.610Z,311.00
2024-02-12T06:08:06.924Z,240.23
2024-02-12T06:08:51.495Z,276.80
2024-02-12T06:09:50.212Z,660.83
2024-02-12T06:10:48.245Z,262.38
2024-02-12T06:11:35.954Z,233.20
2024-02-12T06:12:23.082Z,239.77
2024-02-12T06:13:07.634Z,323.38
2024-02-12T06:14:15.907Z,265.15
2024-02-12T06:14:56.568Z,274.33
2024-02-12T06:15:55.508Z,169.60
2024-02-12T06:16:30.734Z,268.02
2024-02-12T06:17:12.340Z,234.25
2024-02-12T06:18:05.221Z,430.83
2024-02-12T06:19:11.169Z,237.00
2024-02-12T06:20:16.243Z,387.73
2024-02-12T06:20:57.365Z,202.43
2024-02-12T06:21:53.956Z,303.10
2024-02-12T06:22:50.718Z,300.20
2024-02-12T06:23:41.447Z,210.43
2024-02-12T06:25:52.768Z,269.08
2024-02-12T06:26:44.314Z,238.13
2024-02-12T06:27:27.897Z,270.30
2024-02-12T06:28:19.910Z,263.30
2024-02-12T06:29:01.220Z,184.38
2024-02-12T06:29:51.103Z,265.08
2024-02-12T06:30:34.787Z,461.30
2024-02-12T06:31:39.164Z,291.92
2024-02-12T06:32:23.562Z,281.10
2024-02-12T06:34:15.237Z,168.05
2024-02-12T06:35:22.180Z,209.65
2024-02-12T06:35:58.133Z,172.93
2024-02-12T06:36:53.373Z,261.63
2024-02-12T06:38:16.700Z,190.30
2024-02-12T06:39:03.899Z,241.63
2024-02-12T06:39:42.447Z,245.93
2024-02-12T06:40:37.105Z,222.35
2024-02-12T06:41:42.420Z,136.68
2024-02-12T06:42:18.069Z,392.65
2024-02-12T06:43:18.914Z,257.90
2024-02-12T06:44:21.207Z,243.90
2024-02-12T06:45:16.099Z,299.95
2024-02-12T06:46:06.265Z,242.73
2024-02-12T06:46:59.310Z,214.40
2024-02-12T06:47:48.708Z,244.25
2024-02-12T06:48:32.973Z,305.63
2024-02-12T06:50:48.553Z,221.50
2024-02-12T06:51:32.322Z,191.02
2024-02-12T06:52:43.075Z,173.60
2024-02-12T06:53:22.978Z,204.57
2024-02-12T06:54:09.671Z,211.00
2024-02-12T06:54:50.776Z,167.20
2024-02-12T06:57:04.527Z,131.85
2024-02-12T06:58:37.599Z,194.43
2024-02-12T07:00:40.355Z,136.57
2024-02-12T07:02:22.163Z,133.27
2024-02-12T07:03:09.680Z,192.63
2024-02-12T07:04:21.682Z,198.13
2024-02-12T07:05:21.553Z,199.35
2024-02-12T07:05:56.734Z,229.18
2024-02-12T07:06:35.250Z,163.88
2024-02-12T07:07:16.166Z,163.07
2024-02-12T07:08:00.379Z,180.73
2024-02-12T07:08:41.898Z,133.40
2024-02-12T07:09:46.027Z,206.60
2024-02-12T07:10:29.896Z,153.15
2024-02-12T07:11:58.877Z,143.15
2024-02-12T07:12:34.415Z,158.27
2024-02-12T07:13:19.280Z,208.48
2024-02-12T07:14:06.284Z,164.00
2024-02-12T07:15:02.090Z,221.98
2024-02-12T07:15:49.225Z,107.30
2024-02-12T07:16:38.516Z,226.00
2024-02-12T07:17:28.466Z,135.52
2024-02-12T07:18:18.976Z,73.25
2024-02-12T07:19:17.506Z,210.63
2024-02-12T07:20:19.960Z,170.43
2024-02-12T07:21:00.673Z,172.30
2024-02-12T07:22:14.198Z,187.43
2024-02-12T07:22:55.126Z,136.63
2024-02-12T07:25:01.907Z,177.40
2024-02-12T07:25:48.764Z,155.48
2024-02-12T07:27:52.011Z,112.95
2024-02-12T07:28:38.827Z,180.35
2024-02-12T07:30:49.751Z,106.07
2024-02-12T07:31:37.773Z,171.43
2024-02-12T07:32:19.028Z,89.32
2024-02-12T07:33:09.652Z,141.98
2024-02-12T07:34:04.619Z,116.03
2024-02-12T07:34:59.951Z,164.80
2024-02-12T07:35:56.890Z,144.77
2024-02-12T07:37:17.515Z,134.82
2024-02-12T07:38:05.794Z,129.07
2024-02-12T07:38:55.754Z,169.98
2024-02-12T07:40:55.349Z,140.52
2024-02-12T07:41:48.802Z,104.45
2024-02-12T07:44:35.044Z,111.25
2024-02-12T07:45:24.864Z,243.43
2024-02-12T07:46:13.864Z,111.35
2024-02-12T07:47:11.164Z,204.48
2024-02-12T07:48:12.694Z,99.80
2024-02-12T07:49:09.463Z,115.30
2024-02-12T07:50:12.114Z,253.68
2024-02-12T07:50:56.644Z,136.38
2024-02-12T07:51:45.992Z,107.18
2024-02-12T07:52:39.686Z,99.65
2024-02-12T07:53:14.733Z,145.40
2024-02-12T07:54:17.007Z,142.88
2024-02-12T07:54:54.666Z,130.45
2024-02-12T07:57:20.590Z,113.80
2024-02-12T07:59:12.132Z,171.48
2024-02-12T07:59:50.375Z,77.57
2024-02-12T08:01:15.171Z,100.32
2024-02-12T08:02:23.160Z,88.90
2024-02-12T08:03:01.819Z,102.43
2024-02-12T08:03:45.754Z,126.32
2024-02-12T08:04:43.656Z,106.55
2024-02-12T08:05:38.762Z,71.03
2024-02-12T08:06:11.250Z,70.25
2024-02-12T08:06:58.581Z,68.95
2024-02-12T08:07:41.874Z,71.03
2024-02-12T08:08:37.581Z,70.57
2024-02-12T08:09:22.085Z,80.72
2024-02-12T08:10:09.209Z,90.05
2024-02-12T08:11:11.359Z,101.47
2024-02-12T08:12:03.325Z,71.50
2024-02-12T08:13:03.072Z,88.35
2024-02-12T08:14:02.287Z,112.80
2024-02-12T08:15:04.650Z,74.93
2024-02-12T08:15:43.506Z,90.40
2024-02-12T08:16:18.789Z,63.88
2024-02-12T08:16:57.207Z,74.43
2024-02-12T08:18:02.241Z,54.30
2024-02-12T08:18:43.425Z,93.50
2024-02-12T08:19:24.994Z,82.40
2024-02-12T08:20:24.802Z,87.57
2024-02-12T08:21:21.467Z,60.13
2024-02-12T08:23:27.040Z,48.13
2024-02-12T08:24:25.483Z,65.63
2024-02-12T08:25:29.004Z,105.70
2024-02-12T08:26:16.117Z,78.10
2024-02-12T08:26:48.530Z,76.15
2024-02-12T08:27:29.187Z,50.03
2024-02-12T08:28:19.412Z,77.15
2024-02-12T08:28:54.733Z,76.40
2024-02-12T08:30:47.501Z,54.03
2024-02-12T08:31:36.777Z,81.80
2024-02-12T08:32:20.956Z,73.28
2024-02-12T08:33:28.879Z,73.80
2024-02-12T08:34:23.155Z,46.78
2024-02-12T08:35:15.900Z,45.58
2024-02-12T08:35:56.755Z,66.93
2024-02-12T08:36:54.372Z,43.97
2024-02-12T08:37:57.524Z,63.72
2024-02-12T08:38:50.281Z,71.90
2024-02-12T08:39:31.541Z,68.03
2024-02-12T08:40:12.442Z,108.93
2024-02-12T08:41:04.802Z,94.22
2024-02-12T08:41:54.840Z,61.05
2024-02-12T08:42:38.654Z,51.25
2024-02-12T08:43:17.014Z,72.05
2024-02-12T08:44:00.990Z,81.00
2024-02-12T08:45:01.956Z,75.25
2024-02-12T08:46:01.088Z,77.75
2024-02-12T08:47:08.025Z,87.53
2024-02-12T08:47:58.198Z,50.15
2024-02-12T08:48:39.415Z,104.68
2024-02-12T08:49:30.539Z,110.53
2024-02-12T08:50:12.819Z,102.50
2024-02-12T08:51:03.324Z,53.58
2024-02-12T08:51:44.321Z,64.88
2024-02-12T08:52:28.619Z,45.08
2024-02-12T08:53:07.170Z,71.68
2024-02-12T08:53:45.730Z,80.53
2024-02-12T08:54:39.178Z,87.45
2024-02-12T08:55:39.470Z,72.50
2024-02-12T08:56:15.865Z,93.82
2024-02-12T08:56:59.588Z,97.07
2024-02-12T08:57:45.427Z,96.05
2024-02-12T08:58:45.919Z,59.30
2024-02-12T08:59:39.904Z,76.35
2024-02-12T09:00:48.732Z,83.90
2024-02-12T09:01:26.600Z,62.10
2024-02-12T09:03:36.134Z,80.82
2024-02-12T09:04:16.248Z,65.65
2024-02-12T09:05:04.119Z,98.68
2024-02-12T09:06:00.077Z,94.57
2024-02-12T09:07:22.841Z,77.50
2024-02-12T09:08:13.060Z,94.70
2024-02-12T09:08:50.669Z,102.35
2024-02-12T09:10:03.988Z,79.03
2024-02-12T09:11:03.645Z,148.73
2024-02-12T09:12:04.612Z,85.30
2024-02-12T09:12:53.599Z,69.22
2024-02-12T09:13:38.172Z,49.22
2024-02-12T09:14:30.196Z,65.57
2024-02-12T09:15:15.851Z,64.75
2024-02-12T09:15:57.809Z,59.45
2024-02-12T09:16:53.521Z,106.15
2024-02-12T09:17:59.835Z,109.45
2024-02-12T09:20:53.640Z,93.60
2024-02-12T09:21:34.564Z,124.10
2024-02-12T09:22:13.781Z,75.90
2024-02-12T09:22:58.896Z,79.75
2024-02-12T09:23:49.243Z,126.50
2024-02-12T09:24:51.263Z,69.32
2024-02-12T09:25:32.165Z,82.85
2024-02-12T09:26:22.101Z,67.88
2024-02-12T09:27:05.896Z,80.75
2024-02-12T09:27:56.647Z,73.80
2024-02-12T09:28:49.392Z,76.18
2024-02-12T09:30:12.670Z,77.88
2024-02-12T09:31:02.661Z,84.18
2024-02-12T09:31:46.786Z,87.47
2024-02-12T09:32:36.710Z,118.82
2024-02-12T09:33:26.161Z,77.28
2024-02-12T09:34:16.273Z,79.68
2024-02-12T09:34:59.046Z,80.90
2024-02-12T09:35:36.841Z,54.75
2024-02-12T09:36:16.839Z,76.40
2024-02-12T09:37:04.764Z,72.90
2024-02-12T09:37:47.494Z,71.05
2024-02-12T09:39:10.612Z,62.20
2024-02-12T09:40:19.258Z,60.30
2024-02-12T09:41:12.264Z,79.97
2024-02-12T09:43:04.214Z,85.10
2024-02-12T09:44:19.205Z,72.10
2024-02-12T09:45:20.312Z,112.43
2024-02-12T09:46:28.826Z,95.95
2024-02-12T09:47:37.876Z,97.95
2024-02-12T09:48:29.551Z,64.28
2024-02-12T09:49:01.864Z,96.15
2024-02-12T09:51:21.359Z,85.53
2024-02-12T09:52:31.087Z,79.85
2024-02-12T09:54:24.978Z,61.38
2024-02-12T09:55:22.863Z,72.32
2024-02-12T09:56:11.697Z,77.88
2024-02-12T09:57:01.958Z,52.72
2024-02-12T09:58:10.207Z,67.90
2024-02-12T09:59:15.076Z,85.07
2024-02-12T09:59:48.316Z,45.33
2024-02-12T10:00:39.933Z,80.40
2024-02-12T10:01:44.746Z,85.18
2024-02-12T10:02:26.009Z,70.63
2024-02-12T10:03:22.125Z,83.28
2024-02-12T10:04:03.894Z,86.22
2024-02-12T10:05:13.114Z,64.10
2024-02-12T10:06:00.077Z,61.45
2024-02-12T10:07:51.526Z,66.05
2024-02-12T10:09:01.792Z,63.50
2024-02-12T10:09:42.961Z,47.50
2024-02-12T10:10:16.445Z,48.75
2024-02-12T10:12:16.031Z,43.20
2024-02-12T10:13:08.838Z,70.78
2024-02-12T10:14:09.278Z,54.17
2024-02-12T10:14:53.672Z,69.40
2024-02-12T10:15:55.874Z,43.60
2024-02-12T10:16:45.952Z,104.13
2024-02-12T10:17:33.004Z,80.50
2024-02-12T10:18:48.205Z,53.42
2024-02-12T10:19:38.029Z,64.93
2024-02-12T10:20:15.096Z,38.92
2024-02-12T10:21:24.320Z,78.15
2024-02-12T10:22:04.751Z,78.60
2024-02-12T10:22:46.577Z,34.92
2024-02-12T10:23:43.926Z,80.03
2024-02-12T10:24:28.712Z,47.10
2024-02-12T10:25:20.392Z,69.78
2024-02-12T10:26:10.007Z,52.20
2024-02-12T10:27:13.344Z,43.22
2024-02-12T10:27:51.135Z,39.97
2024-02-12T10:29:02.962Z,95.15
2024-02-12T10:29:44.700Z,33.33
2024-02-12T10:30:35.102Z,74.72
2024-02-12T10:32:41.550Z,45.50
2024-02-12T10:33:59.111Z,48.78
2024-02-12T10:35:13.004Z,39.53
2024-02-12T10:35:55.218Z,33.45
2024-02-12T10:37:59.947Z,33.08
2024-02-12T10:38:47.664Z,34.60
2024-02-12T10:39:46.885Z,39.75
2024-02-12T10:40:46.102Z,44.42
2024-02-12T10:41:53.527Z,30.98
2024-02-12T10:44:10.082Z,37.38
2024-02-12T10:45:03.689Z,29.65
2024-02-12T10:45:49.257Z,32.28
2024-02-12T10:46:36.446Z,41.63
2024-02-12T10:47:22.985Z,29.00
2024-02-12T10:48:51.349Z,29.67
2024-02-12T10:49:33.489Z,27.98
2024-02-12T10:50:19.809Z,37.25
2024-02-12T10:51:33.958Z,40.53
2024-02-12T10:52:25.717Z,77.82
2024-02-12T10:52:58.853Z,40.20
2024-02-12T10:53:50.748Z,42.65
2024-02-12T10:54:38.479Z,58.22
2024-02-12T10:55:20.208Z,57.55
2024-02-12T10:56:47.811Z,49.03
2024-02-12T10:57:46.927Z,29.42
2024-02-12T10:58:31.708Z,56.25
2024-02-12T10:59:13.035Z,75.70
2024-02-12T11:00:02.739Z,47.50
2024-02-12T11:01:06.906Z,33.78
2024-02-12T11:01:53.353Z,60.00
2024-02-12T11:02:43.396Z,93.93
2024-02-12T11:03:52.654Z,49.42
2024-02-12T11:04:37.186Z,36.22
2024-02-12T11:05:39.130Z,37.70
2024-02-12T11:06:18.962Z,44.63
2024-02-12T11:08:35.116Z,78.00
2024-02-12T11:09:37.112Z,87.45
2024-02-12T11:10:34.718Z,64.28
2024-02-12T11:11:32.516Z,71.30
2024-02-12T11:12:34.817Z,68.85
2024-02-12T11:13:46.206Z,63.20
2024-02-12T11:14:57.050Z,85.88
2024-02-12T11:16:03.574Z,90.93
2024-02-12T11:16:51.229Z,86.00
2024-02-12T11:17:33.645Z,54.83
2024-02-12T11:18:26.799Z,57.33
2024-02-12T11:19:12.036Z,81.93
2024-02-12T11:20:00.312Z,54.20
2024-02-12T11:20:59.901Z,105.13
2024-02-12T11:21:45.560Z,61.08
2024-02-12T11:23:35.823Z,130.27
2024-02-12T11:24:35.117Z,106.22
2024-02-12T11:25:23.478Z,126.10
2024-02-12T11:26:26.190Z,59.30
2024-02-12T11:27:22.217Z,66.20
2024-02-12T11:28:12.029Z,107.78
2024-02-12T11:29:11.928Z,71.10
2024-02-12T11:29:59.374Z,106.38
2024-02-12T11:30:48.307Z,84.18